createdAt,value
2023-10-23T00:02:10.123Z,94752.31
2023-10-23T00:10:37.674Z,94756.95
2023-10-23T00:19:07.500Z,94755.66
2023-10-23T00:27:59.042Z,94761.98
2023-10-23T00:36:23.336Z,94755.97
2023-10-23T00:44:47.240Z,94744.89
2023-10-23T00:53:24.175Z,94735.59
2023-10-23T01:01:55.908Z,94747.38
2023-10-23T01:10:20.575Z,94747.23
2023-10-23T01:18:48.410Z,94735.27
2023-10-23T01:27:16.120Z,94729.54
2023-10-23T01:35:43.157Z,94733.02
2023-10-23T01:44:08.635Z,94720.96
2023-10-23T01:52:36.358Z,94712.02
2023-10-23T02:01:04.599Z,94700.94
2023-10-23T02:09:33.595Z,94688.39
2023-10-23T02:18:01.920Z,94677.55
2023-10-23T02:26:35.455Z,94670.37
2023-10-23T02:35:00.221Z,94647.69
2023-10-23T02:43:24.585Z,94625.56
2023-10-23T02:51:53.387Z,94598.25
2023-10-23T03:00:17.513Z,94547.70
2023-10-23T03:08:49.947Z,94496.33
2023-10-23T03:17:16.980Z,94459.48
2023-10-23T03:25:45.526Z,94429.74
2023-10-23T03:34:10.678Z,94388.62
2023-10-23T03:42:53.388Z,94338.02
2023-10-23T03:51:25.097Z,94310.94
2023-10-23T03:59:52.466Z,94296.44
2023-10-23T04:08:20.123Z,94289.86
2023-10-23T04:16:45.374Z,94285.34
2023-10-23T04:25:16.440Z,94300.22
2023-10-23T04:33:44.635Z,94280.86
2023-10-23T04:42:08.743Z,94266.11
2023-10-23T04:50:38.787Z,94254.83
2023-10-23T04:59:11.010Z,94255.56
2023-10-23T05:07:38.633Z,94267.59
2023-10-23T05:16:14.468Z,94267.20
2023-10-23T05:24:47.138Z,94262.05
2023-10-23T05:33:14.260Z,94274.34
2023-10-23T05:41:41.382Z,94293.67
2023-10-23T05:50:10.555Z,94303.29
2023-10-23T05:58:46.298Z,94328.14
2023-10-23T06:07:13.824Z,94351.40
2023-10-23T06:15:41.311Z,94371.71
2023-10-23T06:24:12.441Z,94413.23
2023-10-23T06:32:42.153Z,94454.27
2023-10-23T06:41:26.624Z,94494.33
2023-10-23T06:49:53.950Z,94520.27
2023-10-23T06:58:23.900Z,94549.41
2023-10-23T07:06:57.214Z,94612.73
2023-10-23T07:15:25.538Z,94682.45
2023-10-23T07:23:54.189Z,94720.70
2023-10-23T07:32:24.200Z,94763.65
2023-10-23T07:40:56.207Z,94801.71
2023-10-23T07:49:20.502Z,94876.91
2023-10-23T07:57:56.466Z,94942.75
2023-10-23T08:06:22.238Z,94976.14
2023-10-23T08:14:47.465Z,94999.52
2023-10-23T08:23:20.626Z,95010.65
2023-10-23T08:31:52.751Z,95036.71
2023-10-23T08:40:17.049Z,95102.89
2023-10-23T08:48:48.923Z,95166.61
2023-10-23T08:57:17.108Z,95188.81
2023-10-23T09:05:45.597Z,95157.73
2023-10-23T09:14:24.849Z,95114.13
2023-10-23T09:22:58.273Z,95123.73
2023-10-23T09:31:31.761Z,95152.55
2023-10-23T09:40:13.484Z,95172.19
2023-10-23T09:48:45.452Z,95210.12
2023-10-23T09:57:14.872Z,95279.69
2023-10-23T10:05:57.798Z,95324.09
2023-10-23T10:14:28.923Z,95318.91
2023-10-23T10:23:11.605Z,95295.78
2023-10-23T10:32:10.997Z,95294.70
2023-10-23T10:41:01.531Z,95265.79
2023-10-23T10:49:32.971Z,95198.60
2023-10-23T10:58:05.069Z,95152.80
2023-10-23T11:06:37.048Z,95158.50
2023-10-23T11:15:08.385Z,95178.22
2023-10-23T11:23:47.958Z,95194.35
2023-10-23T11:32:18.672Z,95241.25
2023-10-23T11:40:48.425Z,95277.91
2023-10-23T11:49:12.968Z,95373.39
2023-10-23T11:57:43.573Z,95436.96
2023-10-23T12:06:09.646Z,95453.92
2023-10-23T12:14:37.436Z,95454.92
2023-10-23T12:23:04.403Z,95443.65
2023-10-23T12:31:30.904Z,95421.02
2023-10-23T12:40:02.172Z,95394.67
2023-10-23T12:48:28.409Z,95393.13
2023-10-23T12:56:53.697Z,95383.09
2023-10-23T13:05:21.248Z,95358.02
2023-10-23T13:13:48.161Z,95355.15
2023-10-23T13:22:18.081Z,95369.60
2023-10-23T13:30:44.848Z,95385.18
2023-10-23T13:39:12.321Z,95375.06
2023-10-23T13:47:38.450Z,95373.89
2023-10-23T13:56:05.364Z,95369.40
2023-10-23T14:04:29.356Z,95359.04
2023-10-23T14:12:57.982Z,95369.40
2023-10-23T14:21:24.867Z,95382.02
2023-10-23T14:29:48.825Z,95365.59
2023-10-23T14:38:13.251Z,95340.83
2023-10-23T14:46:39.415Z,95331.02
2023-10-23T14:55:05.509Z,95338.03
2023-10-23T15:03:31.125Z,95339.98
2023-10-23T15:11:54.658Z,95308.11
2023-10-23T15:20:30.969Z,95194.83
2023-10-23T15:28:55.788Z,95068.34
2023-10-23T15:37:21.237Z,94954.88
2023-10-23T15:45:51.541Z,94821.05
2023-10-23T15:54:16.184Z,94694.70
2023-10-23T16:02:42.899Z,94610.90
2023-10-23T16:11:09.318Z,94561.85
2023-10-23T16:19:34.272Z,94539.98
2023-10-23T16:28:00.145Z,94520.89
2023-10-23T16:36:24.032Z,94485.33
2023-10-23T16:44:55.880Z,94447.12
2023-10-23T16:53:20.738Z,94415.05
2023-10-23T17:01:45.992Z,94405.17
2023-10-23T17:10:10.741Z,94412.42
2023-10-23T17:18:35.931Z,94432.16
2023-10-23T17:27:00.401Z,94444.27
2023-10-23T17:35:26.825Z,94435.13
2023-10-23T17:43:51.819Z,94420.40
2023-10-23T17:52:18.816Z,94413.38
2023-10-23T18:00:43.001Z,94422.12
2023-10-23T18:09:08.018Z,94394.77
2023-10-23T18:17:32.162Z,94371.52
2023-10-23T18:26:02.394Z,94384.13
2023-10-23T18:34:26.637Z,94369.63
2023-10-23T18:43:03.716Z,94334.70
2023-10-23T18:51:29.387Z,94287.84
2023-10-23T18:59:54.662Z,94232.77
2023-10-23T19:08:17.968Z,94192.75
2023-10-23T19:16:42.186Z,94165.80
2023-10-23T19:25:10.860Z,94150.02
2023-10-23T19:33:41.245Z,94134.52
2023-10-23T19:42:12.553Z,94122.08
2023-10-23T19:50:44.564Z,94094.61
2023-10-23T19:59:09.298Z,94075.46
2023-10-23T20:07:48.371Z,94030.70
2023-10-23T20:16:13.776Z,93995.13
2023-10-23T20:24:37.752Z,93970.25
2023-10-23T20:33:04.374Z,93961.60
2023-10-23T20:41:29.339Z,93937.00
2023-10-23T20:49:53.292Z,93914.25
2023-10-23T20:58:19.846Z,93897.69
2023-10-23T21:06:45.133Z,93886.21
2023-10-23T21:15:12.556Z,93851.11
2023-10-23T21:23:36.771Z,93830.19
2023-10-23T21:32:01.917Z,93820.25
2023-10-23T21:40:26.313Z,93813.92
2023-10-23T21:48:50.156Z,93801.40
2023-10-23T21:57:20.418Z,93778.13
2023-10-23T22:05:52.594Z,93776.28
2023-10-23T22:14:17.858Z,93776.77
2023-10-23T22:22:42.970Z,93738.81
2023-10-23T22:31:07.137Z,93723.94
2023-10-23T22:39:34.169Z,93721.34
2023-10-23T22:47:58.479Z,93718.23
2023-10-23T22:56:25.995Z,93694.71
2023-10-23T23:04:50.932Z,93664.92
2023-10-23T23:13:18.937Z,93626.23
2023-10-23T23:21:46.809Z,93585.46
2023-10-23T23:30:11.312Z,93551.10
2023-10-23T23:38:36.027Z,93470.96
2023-10-23T23:47:03.002Z,93316.20
2023-10-23T23:55:30.989Z,93218.70
